createdAt,value
2023-01-10T00:00:14.925Z,31.87
2023-01-10T00:02:44.533Z,30.07
2023-01-10T00:05:12.651Z,27.50
2023-01-10T00:07:40.694Z,29.77
2023-01-10T00:10:09.714Z,24.67
2023-01-10T00:12:55.441Z,24.03
2023-01-10T00:15:23.737Z,23.33
2023-01-10T00:17:53.129Z,23.10
2023-01-10T00:20:21.618Z,22.73
2023-01-10T00:22:50.888Z,20.93
2023-01-10T00:25:21.117Z,20.70
2023-01-10T00:27:56.256Z,20.93
2023-01-10T00:30:24.568Z,22.07
2023-01-10T00:32:53.945Z,23.47
2023-01-10T00:35:21.903Z,26.00
2023-01-10T00:37:50.026Z,25.70
2023-01-10T00:40:18.255Z,32.57
2023-01-10T00:43:06.042Z,33.37
2023-01-10T00:45:34.046Z,35.67
2023-01-10T00:48:03.452Z,34.47
2023-01-10T00:50:31.475Z,37.80
2023-01-10T00:52:59.496Z,38.87
2023-01-10T00:55:28.489Z,40.33
2023-01-10T00:57:56.487Z,38.40
2023-01-10T01:00:24.584Z,38.90
2023-01-10T01:02:53.314Z,35.37
2023-01-10T01:05:23.005Z,35.53
2023-01-10T01:07:51.145Z,37.13
2023-01-10T01:10:29.404Z,37.40
2023-01-10T01:12:59.139Z,39.17
2023-01-10T01:15:28.288Z,35.10
2023-01-10T01:17:56.669Z,35.93
2023-01-10T01:20:26.165Z,36.17
2023-01-10T01:22:54.248Z,39.47
2023-01-10T01:25:23.572Z,37.97
2023-01-10T01:27:51.587Z,36.90
2023-01-10T01:30:19.632Z,35.10
2023-01-10T01:32:47.640Z,37.77
2023-01-10T01:35:17.424Z,37.63
2023-01-10T01:37:46.869Z,31.17
2023-01-10T01:40:16.114Z,31.27
2023-01-10T01:42:44.526Z,31.00
2023-01-10T01:45:40.531Z,31.93
2023-01-10T01:48:16.521Z,28.80
2023-01-10T01:50:49.527Z,27.43
2023-01-10T01:53:27.185Z,29.90
2023-01-10T01:55:57.587Z,26.17
2023-01-10T01:58:31.412Z,24.80
2023-01-10T02:00:59.692Z,23.47
2023-01-10T02:03:28.327Z,23.40
2023-01-10T02:05:56.867Z,22.37
2023-01-10T02:08:26.210Z,22.43
2023-01-10T02:10:59.356Z,25.03
2023-01-10T02:13:28.380Z,21.63
2023-01-10T02:15:56.442Z,23.33
2023-01-10T02:18:25.420Z,23.77
2023-01-10T02:21:18.357Z,21.60
2023-01-10T02:24:18.583Z,18.13
2023-01-10T02:27:09.109Z,21.40
2023-01-10T02:30:26.897Z,19.10
2023-01-10T02:33:05.525Z,20.93
2023-01-10T02:35:47.591Z,19.67
2023-01-10T02:38:24.675Z,19.83
2023-01-10T02:40:59.351Z,20.00
2023-01-10T02:43:33.385Z,19.20
2023-01-10T02:46:06.851Z,19.30
2023-01-10T02:48:36.322Z,19.70
2023-01-10T02:51:10.997Z,21.47
2023-01-10T02:53:43.108Z,20.83
2023-01-10T02:56:26.135Z,17.80
2023-01-10T02:59:14.299Z,20.43
2023-01-10T03:01:56.399Z,20.83
2023-01-10T03:04:35.301Z,18.30
2023-01-10T03:07:12.999Z,18.93
2023-01-10T03:09:50.177Z,20.27
2023-01-10T03:12:24.704Z,21.17
2023-01-10T03:14:55.055Z,20.43
2023-01-10T03:17:27.901Z,20.67
2023-01-10T03:20:01.885Z,18.10
2023-01-10T03:22:32.856Z,19.17
2023-01-10T03:25:02.793Z,18.20
2023-01-10T03:27:37.572Z,16.90
2023-01-10T03:30:14.126Z,19.73
2023-01-10T03:32:43.915Z,17.17
2023-01-10T03:35:14.382Z,16.10
2023-01-10T03:37:50.498Z,16.30
2023-01-10T03:40:24.231Z,16.30
2023-01-10T03:43:17.350Z,14.93
2023-01-10T03:45:53.010Z,16.43
2023-01-10T03:48:23.657Z,12.83
2023-01-10T03:50:53.535Z,12.93
2023-01-10T03:53:21.578Z,14.83
2023-01-10T03:55:50.458Z,14.03
2023-01-10T03:58:21.731Z,12.27
2023-01-10T04:00:52.162Z,12.13
2023-01-10T04:03:20.267Z,11.70
2023-01-10T04:05:48.295Z,11.93
2023-01-10T04:08:17.722Z,10.10
2023-01-10T04:10:45.776Z,9.57
2023-01-10T04:13:14.184Z,9.63
2023-01-10T04:15:42.190Z,10.43
2023-01-10T04:18:10.235Z,10.40
2023-01-10T04:20:38.296Z,9.30
2023-01-10T04:23:06.259Z,9.97
2023-01-10T04:25:35.578Z,8.83
2023-01-10T04:28:03.542Z,10.07
2023-01-10T04:30:31.635Z,11.27
2023-01-10T04:32:59.602Z,10.40
2023-01-10T04:35:27.616Z,9.63
2023-01-10T04:37:55.663Z,8.87
2023-01-10T04:40:23.644Z,8.10
2023-01-10T04:42:53.034Z,8.20
2023-01-10T04:45:24.206Z,9.17
2023-01-10T04:47:52.435Z,10.27
2023-01-10T04:50:20.484Z,7.63
2023-01-10T04:52:48.559Z,8.17
2023-01-10T04:55:16.645Z,9.67
2023-01-10T04:57:44.955Z,7.33
2023-01-10T05:00:15.113Z,7.60
2023-01-10T05:02:44.507Z,8.87
2023-01-10T05:05:14.592Z,8.13
2023-01-10T05:07:43.039Z,6.93
2023-01-10T05:10:13.280Z,6.90
2023-01-10T05:12:41.306Z,8.50
2023-01-10T05:15:12.378Z,7.13
2023-01-10T05:17:41.964Z,7.27
2023-01-10T05:20:13.365Z,6.63
2023-01-10T05:22:41.633Z,8.60
2023-01-10T05:25:10.423Z,7.17
2023-01-10T05:27:41.293Z,8.10
2023-01-10T05:30:12.056Z,7.10
2023-01-10T05:32:43.625Z,6.27
2023-01-10T05:35:12.265Z,8.33
2023-01-10T05:37:40.878Z,6.70
2023-01-10T05:40:10.316Z,6.37
2023-01-10T05:42:38.369Z,6.77
2023-01-10T05:45:10.602Z,6.73
2023-01-10T05:47:38.696Z,7.37
2023-01-10T05:50:09.317Z,7.27
2023-01-10T05:52:37.312Z,7.93
2023-01-10T05:55:06.033Z,6.70
2023-01-10T05:57:34.127Z,8.27
2023-01-10T06:00:04.230Z,9.90
2023-01-10T06:02:33.116Z,8.73
2023-01-10T06:05:01.294Z,9.33
2023-01-10T06:07:32.259Z,7.87
2023-01-10T06:10:00.224Z,7.40
2023-01-10T06:12:28.162Z,7.27
2023-01-10T06:14:56.420Z,6.00
2023-01-10T06:17:24.505Z,5.67
2023-01-10T06:19:52.859Z,5.60
2023-01-10T06:22:20.926Z,5.10
2023-01-10T06:24:50.331Z,6.17
2023-01-10T06:27:18.333Z,5.20
2023-01-10T06:29:46.295Z,6.00
2023-01-10T06:32:14.354Z,6.33
2023-01-10T06:34:42.307Z,5.40
2023-01-10T06:37:10.296Z,5.17
2023-01-10T06:39:39.667Z,7.90
2023-01-10T06:42:09.345Z,5.23
2023-01-10T06:44:37.393Z,7.23
2023-01-10T06:47:05.398Z,4.97
2023-01-10T06:49:33.369Z,5.30
2023-01-10T06:52:01.342Z,8.77
2023-01-10T06:54:29.611Z,5.73
2023-01-10T06:56:57.562Z,7.53
2023-01-10T06:59:27.002Z,4.90
2023-01-10T07:01:55.199Z,6.97
2023-01-10T07:04:23.340Z,4.27
2023-01-10T07:06:51.307Z,5.53
2023-01-10T07:09:19.454Z,6.40
2023-01-10T07:11:47.546Z,5.27
2023-01-10T07:14:15.487Z,4.77
2023-01-10T07:16:44.866Z,6.77
2023-01-10T07:19:16.100Z,5.77
2023-01-10T07:21:44.479Z,5.93
2023-01-10T07:24:12.517Z,6.20
2023-01-10T07:26:40.501Z,5.90
2023-01-10T07:29:08.744Z,5.30
2023-01-10T07:31:36.876Z,6.37
2023-01-10T07:34:06.296Z,6.17
2023-01-10T07:36:39.185Z,5.30
2023-01-10T07:39:07.639Z,4.83
2023-01-10T07:41:35.713Z,5.73
2023-01-10T07:44:03.796Z,6.50
2023-01-10T07:46:31.903Z,6.30
2023-01-10T07:48:59.962Z,5.07
2023-01-10T07:51:29.585Z,6.73
2023-01-10T07:53:57.567Z,7.10
2023-01-10T07:56:26.162Z,5.67
2023-01-10T07:58:54.215Z,6.03
2023-01-10T08:01:24.795Z,6.63
2023-01-10T08:03:53.157Z,6.17
2023-01-10T08:06:21.251Z,6.37
2023-01-10T08:08:50.709Z,7.93
2023-01-10T08:11:18.752Z,7.97
2023-01-10T08:13:47.922Z,8.40
2023-01-10T08:16:16.329Z,7.73
2023-01-10T08:18:44.460Z,8.07
2023-01-10T08:21:12.461Z,10.20
2023-01-10T08:23:40.448Z,9.40
2023-01-10T08:26:09.834Z,7.70
2023-01-10T08:28:37.843Z,10.70
2023-01-10T08:31:10.662Z,9.67
2023-01-10T08:33:39.741Z,10.67
2023-01-10T08:36:15.368Z,11.53
2023-01-10T08:38:43.614Z,14.07
2023-01-10T08:41:13.623Z,11.53
2023-01-10T08:43:41.593Z,12.87
2023-01-10T08:46:09.909Z,12.80
2023-01-10T08:48:38.151Z,11.17
2023-01-10T08:51:10.568Z,13.47
2023-01-10T08:53:40.722Z,11.13
2023-01-10T08:56:11.888Z,11.77
2023-01-10T08:58:41.367Z,12.17
2023-01-10T09:01:11.965Z,10.07
2023-01-10T09:03:41.297Z,11.57
2023-01-10T09:06:09.645Z,12.27
2023-01-10T09:08:38.020Z,15.77
2023-01-10T09:11:07.041Z,13.73
2023-01-10T09:13:35.115Z,14.80
2023-01-10T09:16:05.239Z,14.07
2023-01-10T09:18:36.028Z,12.70
2023-01-10T09:21:04.217Z,11.50
2023-01-10T09:23:32.239Z,10.30
2023-01-10T09:26:03.085Z,10.87
2023-01-10T09:28:31.229Z,9.77
2023-01-10T09:31:01.084Z,10.97
2023-01-10T09:33:45.190Z,9.47
2023-01-10T09:36:15.610Z,9.90
2023-01-10T09:38:43.962Z,9.83
2023-01-10T09:41:49.005Z,9.80
2023-01-10T09:44:22.212Z,9.73
2023-01-10T09:47:00.925Z,8.57
2023-01-10T09:49:44.892Z,8.60
2023-01-10T09:52:22.450Z,8.67
2023-01-10T09:54:53.324Z,13.23
2023-01-10T09:57:24.949Z,6.93
2023-01-10T09:59:54.650Z,8.07
2023-01-10T10:02:30.537Z,8.63
2023-01-10T10:05:11.368Z,8.37
2023-01-10T10:07:39.918Z,9.73
2023-01-10T10:10:12.972Z,7.83
2023-01-10T10:12:49.328Z,8.33
2023-01-10T10:15:32.006Z,9.97
2023-01-10T10:18:12.194Z,10.93
2023-01-10T10:20:51.529Z,8.97
2023-01-10T10:23:36.928Z,8.43
2023-01-10T10:26:08.741Z,9.73
2023-01-10T10:28:54.578Z,9.17
2023-01-10T10:31:31.867Z,9.63
2023-01-10T10:34:07.364Z,6.40
2023-01-10T10:36:43.452Z,7.43
2023-01-10T10:39:17.775Z,7.50
2023-01-10T10:41:49.312Z,5.07
2023-01-10T10:44:31.782Z,3.90
2023-01-10T10:47:00.848Z,4.80
2023-01-10T10:49:39.482Z,4.30
2023-01-10T10:52:18.137Z,4.07
2023-01-10T10:54:50.711Z,5.33
2023-01-10T10:57:20.019Z,6.63
2023-01-10T10:59:49.763Z,6.23
2023-01-10T11:02:27.306Z,4.73
2023-01-10T11:04:59.767Z,4.20
2023-01-10T11:07:33.340Z,5.27
2023-01-10T11:10:14.304Z,2.97
2023-01-10T11:12:47.908Z,2.57
2023-01-10T11:15:37.305Z,2.80
2023-01-10T11:18:07.343Z,3.17
2023-01-10T11:20:36.143Z,2.63
2023-01-10T11:23:08.324Z,4.07
2023-01-10T11:25:36.429Z,2.80
2023-01-10T11:28:06.237Z,3.37
2023-01-10T11:30:36.728Z,3.77
2023-01-10T11:33:21.540Z,2.93
2023-01-10T11:36:00.331Z,3.77
2023-01-10T11:38:31.031Z,3.43
2023-01-10T11:41:01.574Z,3.00
2023-01-10T11:43:33.960Z,2.37
2023-01-10T11:46:04.459Z,3.87
2023-01-10T11:49:08.007Z,3.80
2023-01-10T11:51:37.509Z,2.90
2023-01-10T11:54:12.221Z,2.87
2023-01-10T11:56:43.206Z,3.57
2023-01-10T11:59:17.846Z,3.07
2023-01-10T12:01:50.389Z,3.00
2023-01-10T12:04:21.180Z,4.87
2023-01-10T12:06:52.309Z,3.67
2023-01-10T12:09:36.464Z,4.20
2023-01-10T12:12:06.044Z,3.00
2023-01-10T12:14:34.059Z,3.60
2023-01-10T12:17:04.093Z,3.60
2023-01-10T12:19:32.391Z,3.90
2023-01-10T12:22:06.174Z,4.63
2023-01-10T12:24:40.162Z,4.70
2023-01-10T12:27:12.192Z,3.77
2023-01-10T12:29:44.160Z,4.30
2023-01-10T12:32:26.489Z,5.63
2023-01-10T12:35:01.944Z,7.63
2023-01-10T12:37:38.323Z,5.43
2023-01-10T12:40:16.891Z,6.10
2023-01-10T12:43:13.255Z,6.30
2023-01-10T12:45:47.231Z,7.13
2023-01-10T12:48:23.176Z,8.00
2023-01-10T12:50:58.718Z,8.97
2023-01-10T12:53:32.939Z,8.60
2023-01-10T12:56:07.723Z,9.47
2023-01-10T12:58:44.153Z,8.90
2023-01-10T13:01:15.693Z,9.83
2023-01-10T13:03:45.848Z,8.97
2023-01-10T13:06:22.679Z,9.77
2023-01-10T13:08:54.360Z,9.80
2023-01-10T13:11:29.449Z,10.40
2023-01-10T13:14:01.747Z,10.40
2023-01-10T13:16:37.229Z,10.37
2023-01-10T13:19:26.363Z,8.50
2023-01-10T13:22:20.217Z,10.73
2023-01-10T13:25:00.937Z,11.70
2023-01-10T13:27:33.468Z,12.47
2023-01-10T13:30:02.883Z,11.10
2023-01-10T13:32:34.561Z,11.10
2023-01-10T13:35:15.322Z,10.53
2023-01-10T13:37:45.605Z,12.00
2023-01-10T13:40:22.354Z,12.60
2023-01-10T13:43:23.827Z,11.03
2023-01-10T13:46:36.216Z,10.17
2023-01-10T13:49:42.478Z,10.70
2023-01-10T13:52:37.318Z,10.17
2023-01-10T13:55:28.478Z,9.87
2023-01-10T13:57:59.205Z,11.10
2023-01-10T14:01:00.948Z,9.57
2023-01-10T14:03:53.424Z,9.10
2023-01-10T14:06:41.139Z,9.23
2023-01-10T14:09:32.461Z,9.50
2023-01-10T14:12:03.021Z,9.90
2023-01-10T14:14:37.160Z,9.40
2023-01-10T14:17:22.326Z,11.20
2023-01-10T14:20:05.417Z,9.43
2023-01-10T14:22:35.813Z,11.20
2023-01-10T14:25:06.435Z,11.67
2023-01-10T14:27:46.709Z,9.77
2023-01-10T14:30:22.027Z,10.43
2023-01-10T14:32:52.515Z,10.27
2023-01-10T14:35:24.951Z,11.47
2023-01-10T14:37:56.963Z,12.17
2023-01-10T14:40:29.747Z,12.77
2023-01-10T14:43:00.428Z,13.53
2023-01-10T14:45:37.417Z,14.17
2023-01-10T14:48:30.284Z,15.47
2023-01-10T14:51:22.110Z,16.77
2023-01-10T14:53:57.573Z,19.43
2023-01-10T14:56:28.233Z,17.97
2023-01-10T14:58:56.240Z,18.00
2023-01-10T15:01:31.006Z,17.30
2023-01-10T15:04:02.814Z,18.77
2023-01-10T15:06:52.138Z,17.43
2023-01-10T15:09:20.188Z,19.40
2023-01-10T15:11:52.722Z,23.27
2023-01-10T15:14:23.481Z,22.30
2023-01-10T15:16:54.966Z,23.87
2023-01-10T15:19:24.728Z,22.63
2023-01-10T15:21:54.091Z,23.97
2023-01-10T15:24:32.876Z,21.97
2023-01-10T15:27:05.178Z,21.77
2023-01-10T15:29:34.645Z,19.77
2023-01-10T15:32:12.660Z,20.57
2023-01-10T15:34:42.263Z,23.60
2023-01-10T15:37:22.316Z,23.77
2023-01-10T15:39:50.871Z,23.23
2023-01-10T15:42:21.958Z,24.33
2023-01-10T15:44:53.463Z,27.13
2023-01-10T15:47:41.441Z,24.83
2023-01-10T15:50:25.999Z,32.00
2023-01-10T15:52:58.793Z,32.10
2023-01-10T15:55:44.352Z,30.67
2023-01-10T15:58:24.025Z,30.13
2023-01-10T16:00:54.074Z,31.37
2023-01-10T16:03:27.233Z,32.27
2023-01-10T16:05:58.779Z,32.83
2023-01-10T16:08:32.611Z,34.17
2023-01-10T16:11:02.390Z,34.13
2023-01-10T16:13:31.653Z,34.77
2023-01-10T16:16:01.073Z,33.53
2023-01-10T16:18:29.115Z,30.73
2023-01-10T16:21:00.492Z,31.60
2023-01-10T16:23:33.599Z,31.47
2023-01-10T16:26:05.791Z,31.77
2023-01-10T16:28:36.223Z,28.77
2023-01-10T16:31:06.485Z,28.47
2023-01-10T16:33:36.891Z,30.20
2023-01-10T16:36:05.472Z,30.53
2023-01-10T16:38:36.257Z,30.40
2023-01-10T16:41:25.415Z,33.70
2023-01-10T16:43:52.983Z,34.63
2023-01-10T16:46:21.054Z,32.03
2023-01-10T16:48:50.569Z,32.23
2023-01-10T16:51:19.997Z,29.60
2023-01-10T16:53:49.493Z,29.80
2023-01-10T16:56:19.419Z,28.70
2023-01-10T16:58:48.437Z,28.97
2023-01-10T17:01:19.460Z,33.33
2023-01-10T17:03:48.255Z,29.67
2023-01-10T17:06:16.841Z,31.53
2023-01-10T17:08:46.084Z,30.43
2023-01-10T17:11:22.207Z,31.93
2023-01-10T17:13:50.558Z,31.20
2023-01-10T17:16:19.783Z,29.63
2023-01-10T17:18:48.632Z,29.63
2023-01-10T17:21:18.187Z,25.97
2023-01-10T17:23:46.774Z,28.27
2023-01-10T17:26:18.169Z,29.67
2023-01-10T17:28:49.418Z,28.67
2023-01-10T17:31:18.434Z,30.40
2023-01-10T17:33:46.571Z,28.13
2023-01-10T17:36:14.552Z,29.27
2023-01-10T17:38:43.119Z,28.13
2023-01-10T17:41:11.750Z,23.27
2023-01-10T17:43:41.264Z,24.87
2023-01-10T17:46:10.948Z,23.30
2023-01-10T17:48:39.085Z,25.80
2023-01-10T17:51:07.652Z,21.20
2023-01-10T17:53:36.074Z,21.27
2023-01-10T17:56:07.127Z,22.83
2023-01-10T17:58:35.798Z,25.63
2023-01-10T18:01:05.357Z,22.23
2023-01-10T18:03:33.483Z,24.10
2023-01-10T18:06:01.616Z,25.30
2023-01-10T18:08:29.842Z,25.60
2023-01-10T18:11:01.638Z,22.63
2023-01-10T18:13:31.367Z,24.23
2023-01-10T18:16:00.335Z,25.40
2023-01-10T18:18:30.454Z,25.23
2023-01-10T18:21:02.180Z,26.23
2023-01-10T18:23:31.541Z,26.23
2023-01-10T18:26:01.169Z,26.27
2023-01-10T18:28:40.656Z,26.30
2023-01-10T18:31:11.612Z,25.53
2023-01-10T18:33:41.585Z,28.43
2023-01-10T18:36:14.190Z,29.83
2023-01-10T18:38:42.481Z,32.07
2023-01-10T18:41:10.775Z,31.97
2023-01-10T18:43:39.037Z,31.20
2023-01-10T18:46:08.908Z,32.10
2023-01-10T18:48:37.016Z,30.50
2023-01-10T18:51:09.016Z,32.80
2023-01-10T18:53:37.253Z,32.00
2023-01-10T18:56:06.599Z,34.10
2023-01-10T18:58:36.289Z,32.93
2023-01-10T19:01:08.246Z,34.23
2023-01-10T19:03:36.529Z,32.63
2023-01-10T19:06:10.571Z,35.10
2023-01-10T19:08:39.423Z,34.73
2023-01-10T19:11:16.581Z,36.27
2023-01-10T19:13:45.639Z,35.67
2023-01-10T19:16:15.699Z,38.87
2023-01-10T19:18:45.138Z,36.53
2023-01-10T19:21:16.037Z,35.63
2023-01-10T19:23:47.442Z,36.40
2023-01-10T19:26:18.183Z,36.83
2023-01-10T19:28:46.847Z,36.33
2023-01-10T19:31:18.913Z,33.57
2023-01-10T19:33:50.527Z,34.90
2023-01-10T19:36:22.536Z,34.33
2023-01-10T19:38:57.463Z,33.97
2023-01-10T19:41:25.813Z,31.97
2023-01-10T19:43:58.321Z,37.13
2023-01-10T19:46:29.003Z,37.13
2023-01-10T19:48:57.471Z,36.00
2023-01-10T19:51:26.919Z,37.83
2023-01-10T19:53:54.966Z,40.27
2023-01-10T19:56:23.319Z,42.67
2023-01-10T19:58:52.431Z,42.37
2023-01-10T20:01:22.268Z,38.27
2023-01-10T20:03:51.398Z,43.33
2023-01-10T20:06:21.778Z,41.00
2023-01-10T20:08:54.018Z,47.60
2023-01-10T20:11:23.641Z,44.80
2023-01-10T20:13:52.076Z,45.70
2023-01-10T20:16:22.502Z,45.80
2023-01-10T20:18:51.453Z,45.70
2023-01-10T20:21:20.641Z,47.53
2023-01-10T20:23:50.385Z,42.33
2023-01-10T20:26:20.619Z,42.27
2023-01-10T20:28:50.413Z,45.23
2023-01-10T20:31:22.709Z,46.43
2023-01-10T20:33:51.780Z,43.93
2023-01-10T20:36:21.430Z,46.40
2023-01-10T20:38:51.527Z,45.70
2023-01-10T20:41:21.431Z,47.93
2023-01-10T20:43:49.962Z,46.73
2023-01-10T20:46:19.765Z,44.53
2023-01-10T20:48:48.571Z,45.00
2023-01-10T20:51:19.419Z,43.97
2023-01-10T20:53:47.815Z,42.53
2023-01-10T20:56:19.427Z,43.57
2023-01-10T20:58:48.029Z,42.23
2023-01-10T21:01:33.698Z,42.53
2023-01-10T21:04:03.892Z,35.57
2023-01-10T21:06:32.147Z,38.13
2023-01-10T21:09:00.568Z,38.87
2023-01-10T21:11:30.175Z,36.00
2023-01-10T21:13:58.232Z,35.47
2023-01-10T21:16:30.596Z,32.17
2023-01-10T21:19:01.339Z,35.80
2023-01-10T21:21:29.457Z,33.13
2023-01-10T21:23:57.564Z,31.97
2023-01-10T21:26:25.558Z,33.07
2023-01-10T21:28:55.036Z,32.23
2023-01-10T21:31:23.522Z,28.93
2023-01-10T21:33:51.667Z,32.70
2023-01-10T21:36:19.698Z,31.87
2023-01-10T21:38:49.083Z,28.90
2023-01-10T21:41:40.178Z,28.97
2023-01-10T21:44:11.907Z,27.83
2023-01-10T21:46:41.082Z,28.70
2023-01-10T21:49:09.218Z,27.33
2023-01-10T21:51:37.216Z,27.07
2023-01-10T21:54:05.310Z,27.33
2023-01-10T21:56:33.685Z,27.43
2023-01-10T21:59:01.793Z,26.73
2023-01-10T22:01:31.256Z,27.20
2023-01-10T22:03:59.404Z,27.90
2023-01-10T22:06:27.597Z,29.30
2023-01-10T22:08:55.694Z,29.10
2023-01-10T22:11:24.708Z,29.63
2023-01-10T22:13:54.085Z,30.33
2023-01-10T22:16:22.390Z,28.50
2023-01-10T22:18:51.963Z,26.13
2023-01-10T22:21:20.013Z,27.27
2023-01-10T22:23:48.180Z,31.50
2023-01-10T22:26:17.135Z,28.23
2023-01-10T22:28:45.173Z,26.10
2023-01-10T22:31:13.332Z,27.10
2023-01-10T22:33:42.720Z,27.67
2023-01-10T22:36:16.474Z,27.10
2023-01-10T22:38:45.072Z,26.53
2023-01-10T22:41:14.761Z,25.60
2023-01-10T22:43:46.708Z,25.77
2023-01-10T22:46:16.036Z,23.37
2023-01-10T22:48:44.450Z,24.03
2023-01-10T22:51:14.349Z,22.70
2023-01-10T22:53:42.806Z,24.17
2023-01-10T22:56:12.226Z,22.00
2023-01-10T22:58:42.210Z,23.43
2023-01-10T23:01:10.221Z,25.07
2023-01-10T23:03:38.712Z,23.40
2023-01-10T23:06:06.845Z,25.57
2023-01-10T23:08:36.216Z,25.67
2023-01-10T23:11:04.213Z,28.07
2023-01-10T23:13:32.558Z,24.40
2023-01-10T23:16:02.467Z,21.90
2023-01-10T23:18:31.468Z,24.93
2023-01-10T23:20:59.655Z,22.97
2023-01-10T23:23:28.226Z,26.00
2023-01-10T23:26:04.437Z,22.80
2023-01-10T23:28:33.707Z,22.63
2023-01-10T23:31:01.971Z,23.63
2023-01-10T23:33:30.424Z,23.30
2023-01-10T23:35:58.807Z,24.70
2023-01-10T23:38:27.107Z,24.70
2023-01-10T23:40:57.048Z,27.10
2023-01-10T23:43:25.573Z,34.77
2023-01-10T23:45:53.728Z,31.63
2023-01-10T23:48:21.777Z,32.50
2023-01-10T23:50:50.410Z,32.60
2023-01-10T23:53:19.622Z,29.70
2023-01-10T23:55:47.984Z,28.87
2023-01-10T23:58:17.374Z,30.20
